createdAt,value
2023-01-02T00:02:19.926Z,13.73
2023-01-02T00:04:51.144Z,13.40
2023-01-02T00:07:21.107Z,15.40
2023-01-02T00:09:51.575Z,10.90
2023-01-02T00:12:21.533Z,11.73
2023-01-02T00:14:52.949Z,11.30
2023-01-02T00:17:23.509Z,10.97
2023-01-02T00:19:53.487Z,10.87
2023-01-02T00:22:23.454Z,8.30
2023-01-02T00:24:53.171Z,9.70
2023-01-02T00:27:23.131Z,10.50
2023-01-02T00:29:54.905Z,10.40
2023-01-02T00:32:24.860Z,7.90
2023-01-02T00:34:55.133Z,7.70
2023-01-02T00:37:26.318Z,8.17
2023-01-02T00:39:56.694Z,6.93
2023-01-02T00:42:26.957Z,8.50
2023-01-02T00:44:58.192Z,9.10
2023-01-02T00:47:28.798Z,11.60
2023-01-02T00:49:59.435Z,7.10
2023-01-02T00:52:29.737Z,7.47
2023-01-02T00:55:00.239Z,6.53
2023-01-02T00:57:30.227Z,7.93
2023-01-02T01:00:02.453Z,8.80
2023-01-02T01:02:34.704Z,8.20
2023-01-02T01:05:05.439Z,7.73
2023-01-02T01:07:35.743Z,8.00
2023-01-02T01:10:05.453Z,7.47
2023-01-02T01:12:36.164Z,8.57
2023-01-02T01:15:08.572Z,7.30
2023-01-02T01:17:38.912Z,6.77
2023-01-02T01:20:10.541Z,9.30
2023-01-02T01:22:40.705Z,10.23
2023-01-02T01:25:11.316Z,9.20
2023-01-02T01:27:41.708Z,7.67
2023-01-02T01:30:14.556Z,8.07
2023-01-02T01:32:44.946Z,7.90
2023-01-02T01:35:15.221Z,7.10
2023-01-02T01:37:45.522Z,8.20
2023-01-02T01:40:16.104Z,7.10
2023-01-02T01:42:50.173Z,5.60
2023-01-02T01:45:22.104Z,6.57
2023-01-02T01:47:53.854Z,6.13
2023-01-02T01:50:27.557Z,6.33
2023-01-02T01:53:01.425Z,5.67
2023-01-02T01:55:35.030Z,7.10
2023-01-02T01:58:07.913Z,7.63
2023-01-02T02:00:41.695Z,6.87
2023-01-02T02:03:15.701Z,7.07
2023-01-02T02:05:46.678Z,7.63
2023-01-02T02:08:19.991Z,7.90
2023-01-02T02:10:50.798Z,7.80
2023-01-02T02:13:21.526Z,6.70
2023-01-02T02:15:59.258Z,7.43
2023-01-02T02:18:41.593Z,7.20
2023-01-02T02:21:22.842Z,12.73
2023-01-02T02:24:19.763Z,7.93
2023-01-02T02:27:14.948Z,9.60
2023-01-02T02:30:23.629Z,8.73
2023-01-02T02:33:15.992Z,7.30
2023-01-02T02:35:55.567Z,10.73
2023-01-02T02:38:48.365Z,8.27
2023-01-02T02:41:27.460Z,9.93
2023-01-02T02:44:15.819Z,8.33
2023-01-02T02:46:53.042Z,7.87
2023-01-02T02:49:34.613Z,8.47
2023-01-02T02:52:13.349Z,11.53
2023-01-02T02:54:47.448Z,7.70
2023-01-02T02:57:17.885Z,7.13
2023-01-02T02:59:48.107Z,7.70
2023-01-02T03:02:20.879Z,9.20
2023-01-02T03:04:53.568Z,10.50
2023-01-02T03:07:28.993Z,8.87
2023-01-02T03:10:06.318Z,9.70
2023-01-02T03:12:45.417Z,8.47
2023-01-02T03:15:20.673Z,8.87
2023-01-02T03:18:01.493Z,11.67
2023-01-02T03:20:35.153Z,8.10
2023-01-02T03:23:09.788Z,7.40
2023-01-02T03:25:40.697Z,6.87
2023-01-02T03:28:12.050Z,9.17
2023-01-02T03:30:43.563Z,8.87
2023-01-02T03:33:17.028Z,7.70
2023-01-02T03:35:50.402Z,6.43
2023-01-02T03:38:24.260Z,7.60
2023-01-02T03:40:57.804Z,6.73
2023-01-02T03:43:31.734Z,7.60
2023-01-02T03:46:08.436Z,7.97
2023-01-02T03:48:43.409Z,6.70
2023-01-02T03:51:13.696Z,7.53
2023-01-02T03:53:44.338Z,7.00
2023-01-02T03:56:19.393Z,6.27
2023-01-02T03:58:52.516Z,8.90
2023-01-02T04:01:33.946Z,6.97
2023-01-02T04:04:10.540Z,5.80
2023-01-02T04:06:45.025Z,8.60
2023-01-02T04:09:18.283Z,7.03
2023-01-02T04:11:52.109Z,9.33
2023-01-02T04:14:26.727Z,6.90
2023-01-02T04:16:56.900Z,8.00
2023-01-02T04:19:32.818Z,5.53
2023-01-02T04:22:06.958Z,6.43
2023-01-02T04:24:40.094Z,7.53
2023-01-02T04:27:13.768Z,6.70
2023-01-02T04:29:45.805Z,6.50
2023-01-02T04:32:21.385Z,8.33
2023-01-02T04:34:53.519Z,6.57
2023-01-02T04:37:31.815Z,6.57
2023-01-02T04:40:06.057Z,6.80
2023-01-02T04:42:35.856Z,6.80
2023-01-02T04:45:06.149Z,6.50
2023-01-02T04:47:36.874Z,6.23
2023-01-02T04:50:09.137Z,8.53
2023-01-02T04:52:39.370Z,7.60
2023-01-02T04:55:11.091Z,7.87
2023-01-02T04:57:41.331Z,5.70
2023-01-02T05:00:13.602Z,6.47
2023-01-02T05:02:44.466Z,5.47
2023-01-02T05:05:16.911Z,5.37
2023-01-02T05:07:46.815Z,6.70
2023-01-02T05:10:17.393Z,6.13
2023-01-02T05:12:47.672Z,6.37
2023-01-02T05:15:18.149Z,6.80
2023-01-02T05:17:48.097Z,5.77
2023-01-02T05:20:20.204Z,7.77
2023-01-02T05:23:07.450Z,6.20
2023-01-02T05:25:38.444Z,4.90
2023-01-02T05:28:08.509Z,6.70
2023-01-02T05:30:51.037Z,4.80
2023-01-02T05:33:21.258Z,5.20
2023-01-02T05:35:53.340Z,5.73
2023-01-02T05:38:23.380Z,6.40
2023-01-02T05:41:00.735Z,5.73
2023-01-02T05:43:33.514Z,5.77
2023-01-02T05:46:10.627Z,7.37
2023-01-02T05:48:41.084Z,4.67
2023-01-02T05:51:14.072Z,6.40
2023-01-02T05:53:44.546Z,7.07
2023-01-02T05:56:15.934Z,4.53
2023-01-02T05:58:48.064Z,6.40
2023-01-02T06:01:20.556Z,5.77
2023-01-02T06:03:51.621Z,6.20
2023-01-02T06:06:24.447Z,5.63
2023-01-02T06:08:54.784Z,11.70
2023-01-02T06:11:25.180Z,4.47
2023-01-02T06:13:55.325Z,7.23
2023-01-02T06:16:26.545Z,8.00
2023-01-02T06:18:56.704Z,5.90
2023-01-02T06:21:28.984Z,7.53
2023-01-02T06:24:00.203Z,7.80
2023-01-02T06:26:34.927Z,6.80
2023-01-02T06:29:05.868Z,8.93
2023-01-02T06:31:39.572Z,6.63
2023-01-02T06:34:11.227Z,7.00
2023-01-02T06:36:43.445Z,8.93
2023-01-02T06:39:12.896Z,9.60
2023-01-02T06:41:43.448Z,10.03
2023-01-02T06:44:15.305Z,8.67
2023-01-02T06:46:45.758Z,10.10
2023-01-02T06:49:16.064Z,8.10
2023-01-02T06:51:48.160Z,16.30
2023-01-02T06:54:17.885Z,12.13
2023-01-02T06:56:48.644Z,8.53
2023-01-02T06:59:18.654Z,9.90
2023-01-02T07:01:52.034Z,9.03
2023-01-02T07:04:22.174Z,8.00
2023-01-02T07:06:53.235Z,9.50
2023-01-02T07:09:22.974Z,9.60
2023-01-02T07:11:54.083Z,8.90
2023-01-02T07:14:24.511Z,7.70
2023-01-02T07:16:54.801Z,9.13
2023-01-02T07:19:25.110Z,8.00
2023-01-02T07:21:58.639Z,9.57
2023-01-02T07:24:29.070Z,8.77
2023-01-02T07:26:59.173Z,8.97
2023-01-02T07:29:29.435Z,11.87
2023-01-02T07:31:59.435Z,10.90
2023-01-02T07:34:29.132Z,14.00
2023-01-02T07:37:00.846Z,10.77
2023-01-02T07:39:30.856Z,10.60
2023-01-02T07:42:01.504Z,11.00
2023-01-02T07:44:31.793Z,12.03
2023-01-02T07:47:01.485Z,12.37
2023-01-02T07:49:31.421Z,12.43
2023-01-02T07:52:02.671Z,14.53
2023-01-02T07:54:32.820Z,13.23
2023-01-02T07:57:03.382Z,14.00
2023-01-02T07:59:33.677Z,13.13
2023-01-02T08:02:04.161Z,16.13
2023-01-02T08:04:34.085Z,17.80
2023-01-02T08:07:05.484Z,16.20
2023-01-02T08:09:35.061Z,16.83
2023-01-02T08:12:04.796Z,15.73
2023-01-02T08:14:34.931Z,15.17
2023-01-02T08:17:05.543Z,15.63
2023-01-02T08:19:36.204Z,16.37
2023-01-02T08:22:07.553Z,15.37
2023-01-02T08:24:37.188Z,15.87
2023-01-02T08:27:07.067Z,13.67
2023-01-02T08:29:36.864Z,15.57
2023-01-02T08:32:07.938Z,13.87
2023-01-02T08:34:38.578Z,13.00
2023-01-02T08:37:10.057Z,13.60
2023-01-02T08:39:39.883Z,12.53
2023-01-02T08:42:10.362Z,14.87
2023-01-02T08:44:40.729Z,14.87
2023-01-02T08:47:11.091Z,13.30
2023-01-02T08:49:41.377Z,13.77
2023-01-02T08:52:13.102Z,15.43
2023-01-02T08:54:43.379Z,18.47
2023-01-02T08:57:13.403Z,13.57
2023-01-02T08:59:43.508Z,13.97
2023-01-02T09:02:16.437Z,13.10
2023-01-02T09:04:47.286Z,14.70
2023-01-02T09:07:18.913Z,16.40
2023-01-02T09:09:49.292Z,14.20
2023-01-02T09:12:19.151Z,16.43
2023-01-02T09:14:49.667Z,18.07
2023-01-02T09:17:19.669Z,14.20
2023-01-02T09:19:49.941Z,12.67
2023-01-02T09:22:21.350Z,14.53
2023-01-02T09:24:51.013Z,18.80
2023-01-02T09:27:21.234Z,33.90
2023-01-02T09:29:51.399Z,21.47
2023-01-02T09:32:21.628Z,16.60
2023-01-02T09:34:52.064Z,17.40
2023-01-02T09:37:24.056Z,15.53
2023-01-02T09:39:54.073Z,16.07
2023-01-02T09:42:24.133Z,21.03
2023-01-02T09:44:55.689Z,19.37
2023-01-02T09:47:29.780Z,16.47
2023-01-02T09:50:03.753Z,19.23
2023-01-02T09:52:37.594Z,18.33
2023-01-02T09:55:16.619Z,17.60
2023-01-02T09:57:50.382Z,20.30
2023-01-02T10:00:22.629Z,17.00
2023-01-02T10:03:08.330Z,14.13
2023-01-02T10:05:57.001Z,16.10
2023-01-02T10:08:35.355Z,15.53
2023-01-02T10:11:16.224Z,15.10
2023-01-02T10:14:18.267Z,14.00
2023-01-02T10:16:42.412Z,10.30
2023-01-02T10:19:17.331Z,12.00
2023-01-02T10:21:49.951Z,12.60
2023-01-02T10:24:24.792Z,10.43
2023-01-02T10:26:56.091Z,11.20
2023-01-02T10:29:29.839Z,11.90
2023-01-02T10:32:02.718Z,13.67
2023-01-02T10:34:40.374Z,11.17
2023-01-02T10:37:15.556Z,15.50
2023-01-02T10:39:48.352Z,14.13
2023-01-02T10:42:19.833Z,12.47
2023-01-02T10:44:49.798Z,9.30
2023-01-02T10:47:26.680Z,11.47
2023-01-02T10:49:58.657Z,17.90
2023-01-02T10:52:31.849Z,13.20
2023-01-02T10:55:04.535Z,11.60
2023-01-02T10:57:41.938Z,11.33
2023-01-02T11:00:32.950Z,9.80
2023-01-02T11:03:09.190Z,9.97
2023-01-02T11:05:47.418Z,10.27
2023-01-02T11:08:20.081Z,10.63
2023-01-02T11:10:51.913Z,10.83
2023-01-02T11:13:23.113Z,8.90
2023-01-02T11:15:55.250Z,8.93
2023-01-02T11:18:28.051Z,8.87
2023-01-02T11:21:04.573Z,8.93
2023-01-02T11:23:39.458Z,9.40
2023-01-02T11:26:21.949Z,8.40
2023-01-02T11:28:52.892Z,10.00
2023-01-02T11:31:24.328Z,9.53
2023-01-02T11:33:54.838Z,9.40
2023-01-02T11:36:24.240Z,9.10
2023-01-02T11:38:56.955Z,9.80
2023-01-02T11:41:44.668Z,9.57
2023-01-02T11:44:20.646Z,8.67
2023-01-02T11:46:51.612Z,8.57
2023-01-02T11:49:22.974Z,8.90
2023-01-02T11:51:57.028Z,9.07
2023-01-02T11:54:33.192Z,7.47
2023-01-02T11:57:06.340Z,7.47
2023-01-02T11:59:41.354Z,8.33
2023-01-02T12:02:17.227Z,10.10
2023-01-02T12:04:47.684Z,10.37
2023-01-02T12:07:33.658Z,9.30
2023-01-02T12:10:07.015Z,6.93
2023-01-02T12:12:48.971Z,6.60
2023-01-02T12:15:41.613Z,6.27
2023-01-02T12:18:20.528Z,7.70
2023-01-02T12:20:57.540Z,5.83
2023-01-02T12:23:53.651Z,4.70
2023-01-02T12:26:31.806Z,4.17
2023-01-02T12:29:47.359Z,4.40
2023-01-02T12:32:59.120Z,4.37
2023-01-02T12:36:09.510Z,3.60
2023-01-02T12:38:51.454Z,5.50
2023-01-02T12:41:29.232Z,5.90
2023-01-02T12:44:31.488Z,4.83
2023-01-02T12:47:17.680Z,4.63
2023-01-02T12:50:17.663Z,4.23
2023-01-02T12:52:58.535Z,3.47
2023-01-02T12:55:40.450Z,4.13
2023-01-02T12:58:18.601Z,8.40
2023-01-02T13:01:10.613Z,3.20
2023-01-02T13:03:49.138Z,5.57
2023-01-02T13:06:43.359Z,4.73
2023-01-02T13:09:22.047Z,4.20
2023-01-02T13:12:02.054Z,6.10
2023-01-02T13:14:37.689Z,4.80
2023-01-02T13:20:31.848Z,3.93
2023-01-02T13:23:10.191Z,3.30
2023-01-02T13:25:44.029Z,3.50
2023-01-02T13:28:15.881Z,3.97
2023-01-02T13:30:47.595Z,3.23
2023-01-02T13:33:30.406Z,5.70
2023-01-02T13:36:04.849Z,7.10
2023-01-02T13:38:38.368Z,5.90
2023-01-02T13:41:08.138Z,4.23
2023-01-02T13:43:41.352Z,3.23
2023-01-02T13:46:37.017Z,4.50
2023-01-02T13:49:06.642Z,5.33
2023-01-02T13:51:38.865Z,5.43
2023-01-02T13:54:16.654Z,4.10
2023-01-02T13:57:25.309Z,4.97
2023-01-02T14:00:01.077Z,4.87
2023-01-02T14:02:31.413Z,5.90
2023-01-02T14:05:01.697Z,4.80
2023-01-02T14:07:49.553Z,3.73
2023-01-02T14:10:43.858Z,5.40
2023-01-02T14:13:21.971Z,4.17
2023-01-02T14:16:29.097Z,4.10
2023-01-02T14:19:15.318Z,5.20
2023-01-02T14:21:48.653Z,4.07
2023-01-02T14:24:30.587Z,5.13
2023-01-02T14:27:03.105Z,5.50
2023-01-02T14:29:34.178Z,4.33
2023-01-02T14:32:07.110Z,4.57
2023-01-02T14:34:46.221Z,4.77
2023-01-02T14:37:29.796Z,5.57
2023-01-02T14:40:14.408Z,3.57
2023-01-02T14:43:03.707Z,4.63
2023-01-02T14:45:34.046Z,5.17
2023-01-02T14:48:10.137Z,4.30
2023-01-02T14:50:43.893Z,4.10
2023-01-02T14:53:19.172Z,4.17
2023-01-02T14:55:51.277Z,5.30
2023-01-02T14:58:26.657Z,5.30
2023-01-02T15:01:04.197Z,8.17
2023-01-02T15:03:44.578Z,7.50
2023-01-02T15:06:20.939Z,6.40
2023-01-02T15:08:53.769Z,5.87
2023-01-02T15:11:43.755Z,7.70
2023-01-02T15:14:23.391Z,6.20
2023-01-02T15:16:55.665Z,6.20
2023-01-02T15:19:28.908Z,7.27
2023-01-02T15:21:58.788Z,8.67
2023-01-02T15:24:30.900Z,8.00
2023-01-02T15:27:16.789Z,12.30
2023-01-02T15:29:49.180Z,12.13
2023-01-02T15:32:22.321Z,11.67
2023-01-02T15:34:53.430Z,11.40
2023-01-02T15:37:25.368Z,12.77
2023-01-02T15:39:56.688Z,13.43
2023-01-02T15:42:46.738Z,14.57
2023-01-02T15:45:18.932Z,15.20
2023-01-02T15:47:51.130Z,14.60
2023-01-02T15:50:22.992Z,18.87
2023-01-02T15:52:59.393Z,16.77
2023-01-02T15:55:32.255Z,13.90
2023-01-02T15:58:19.114Z,19.20
2023-01-02T16:00:51.332Z,17.60
2023-01-02T16:04:00.722Z,18.47
2023-01-02T16:06:30.859Z,16.43
2023-01-02T16:09:03.888Z,17.87
2023-01-02T16:11:47.122Z,15.90
2023-01-02T16:14:20.631Z,15.53
2023-01-02T16:16:53.588Z,14.23
2023-01-02T16:19:28.091Z,16.97
2023-01-02T16:22:05.774Z,13.30
2023-01-02T16:24:37.533Z,14.27
2023-01-02T16:27:08.068Z,16.17
2023-01-02T16:29:44.128Z,20.57
2023-01-02T16:32:29.435Z,23.07
2023-01-02T16:35:13.443Z,16.90
2023-01-02T16:37:52.954Z,21.27
2023-01-02T16:41:03.024Z,18.30
2023-01-02T16:43:42.871Z,18.37
2023-01-02T16:46:17.193Z,16.23
2023-01-02T16:48:47.292Z,17.60
2023-01-02T16:51:18.219Z,18.30
2023-01-02T16:53:47.941Z,17.07
2023-01-02T16:56:18.767Z,17.90
2023-01-02T16:58:48.629Z,20.00
2023-01-02T17:01:21.457Z,19.13
2023-01-02T17:03:51.512Z,21.33
2023-01-02T17:06:22.279Z,17.17
2023-01-02T17:08:52.696Z,20.53
2023-01-02T17:11:24.714Z,18.17
2023-01-02T17:13:55.061Z,16.73
2023-01-02T17:16:26.854Z,18.87
2023-01-02T17:18:57.165Z,16.23
2023-01-02T17:21:32.500Z,12.93
2023-01-02T17:24:03.130Z,11.90
2023-01-02T17:26:35.473Z,11.33
2023-01-02T17:29:06.048Z,11.97
2023-01-02T17:31:37.422Z,12.57
2023-01-02T17:34:08.200Z,13.93
2023-01-02T17:36:38.166Z,10.53
2023-01-02T17:39:08.381Z,15.27
2023-01-02T17:41:37.944Z,12.70
2023-01-02T17:44:08.569Z,15.50
2023-01-02T17:47:09.499Z,14.10
2023-01-02T17:49:29.729Z,15.20
2023-01-02T17:52:00.489Z,16.40
2023-01-02T17:54:30.357Z,17.23
2023-01-02T17:57:00.143Z,21.50
2023-01-02T17:59:30.103Z,21.00
2023-01-02T18:02:03.541Z,19.50
2023-01-02T18:04:33.339Z,21.37
2023-01-02T18:07:03.529Z,25.07
2023-01-02T18:09:34.091Z,25.10
2023-01-02T18:12:03.749Z,25.80
2023-01-02T18:14:33.623Z,28.47
2023-01-02T18:17:15.547Z,28.10
2023-01-02T18:19:45.946Z,28.17
2023-01-02T18:22:17.882Z,27.33
2023-01-02T18:24:55.355Z,26.37
2023-01-02T18:27:27.993Z,21.20
2023-01-02T18:30:01.984Z,17.97
2023-01-02T18:32:45.414Z,20.43
2023-01-02T18:38:21.392Z,20.50
2023-01-02T18:40:55.354Z,26.40
2023-01-02T18:43:30.600Z,47.50
2023-01-02T18:46:02.882Z,31.23
2023-01-02T18:48:34.764Z,29.83
2023-01-02T18:51:05.061Z,27.73
2023-01-02T18:53:39.417Z,23.40
2023-01-02T18:56:18.307Z,22.37
2023-01-02T18:58:52.514Z,24.17
2023-01-02T19:01:30.567Z,20.77
2023-01-02T19:04:26.326Z,23.13
2023-01-02T19:06:58.249Z,19.67
2023-01-02T19:09:32.806Z,22.23
2023-01-02T19:12:21.919Z,18.90
2023-01-02T19:14:53.226Z,18.53
2023-01-02T19:17:26.372Z,11.10
2023-01-02T19:19:58.474Z,8.97
2023-01-02T19:22:34.169Z,6.90
2023-01-02T19:25:06.072Z,8.43
2023-01-02T19:27:38.109Z,7.03
2023-01-02T19:30:22.738Z,7.50
2023-01-02T19:32:52.739Z,7.97
2023-01-02T19:35:54.272Z,6.23
2023-01-02T19:38:28.325Z,8.60
2023-01-02T19:40:58.771Z,6.77
2023-01-02T19:43:28.777Z,6.43
2023-01-02T19:45:58.685Z,7.27
2023-01-02T19:48:29.090Z,7.60
2023-01-02T19:51:00.550Z,12.93
2023-01-02T19:53:30.153Z,12.10
2023-01-02T19:55:59.863Z,12.50
2023-01-02T19:58:29.986Z,14.67
2023-01-02T20:01:00.284Z,18.80
2023-01-02T20:03:30.474Z,17.10
2023-01-02T20:06:06.377Z,12.50
2023-01-02T20:08:35.910Z,13.10
2023-01-02T20:11:25.855Z,14.43
2023-01-02T20:13:55.961Z,12.03
2023-01-02T20:16:27.175Z,12.70
2023-01-02T20:18:56.850Z,13.13
2023-01-02T20:21:29.624Z,12.03
2023-01-02T20:24:01.421Z,16.33
2023-01-02T20:26:31.583Z,13.63
2023-01-02T20:29:01.959Z,12.97
2023-01-02T20:31:32.399Z,10.83
2023-01-02T20:34:02.732Z,12.53
2023-01-02T20:36:34.963Z,11.63
2023-01-02T20:39:05.186Z,11.63
2023-01-02T20:41:35.695Z,11.00
2023-01-02T20:44:06.060Z,12.30
2023-01-02T20:46:36.853Z,14.63
2023-01-02T20:49:07.421Z,13.40
2023-01-02T20:51:39.484Z,12.80
2023-01-02T20:54:10.597Z,13.27
2023-01-02T20:56:40.794Z,10.70
2023-01-02T20:59:11.326Z,11.30
2023-01-02T21:01:42.612Z,10.70
2023-01-02T21:04:13.247Z,12.50
2023-01-02T21:06:45.128Z,13.10
2023-01-02T21:09:14.989Z,11.53
2023-01-02T21:11:45.857Z,9.63
2023-01-02T21:14:15.869Z,10.23
2023-01-02T21:16:46.215Z,16.87
2023-01-02T21:19:16.235Z,14.10
2023-01-02T21:21:47.895Z,14.77
2023-01-02T21:24:18.125Z,14.57
2023-01-02T21:26:48.287Z,14.77
2023-01-02T21:29:17.704Z,22.70
2023-01-02T21:31:47.045Z,19.40
2023-01-02T21:34:17.059Z,20.03
2023-01-02T21:36:49.258Z,22.43
2023-01-02T21:39:20.593Z,20.40
2023-01-02T21:42:07.815Z,26.13
2023-01-02T21:44:38.107Z,20.37
2023-01-02T21:47:08.102Z,24.27
2023-01-02T21:49:38.029Z,25.17
2023-01-02T21:52:10.448Z,25.57
2023-01-02T21:54:41.285Z,27.10
2023-01-02T21:57:11.954Z,22.03
2023-01-02T21:59:42.257Z,20.57
2023-01-02T22:02:12.542Z,21.73
2023-01-02T22:04:42.763Z,23.67
2023-01-02T22:07:31.539Z,23.47
2023-01-02T22:10:02.524Z,24.90
2023-01-02T22:12:32.355Z,21.87
2023-01-02T22:15:02.654Z,23.33
2023-01-02T22:17:32.950Z,23.80
2023-01-02T22:20:03.992Z,31.20
2023-01-02T22:22:35.475Z,36.90
2023-01-02T22:25:06.124Z,30.13
2023-01-02T22:27:35.812Z,33.10
2023-01-02T22:30:20.884Z,28.13
2023-01-02T22:32:52.902Z,26.73
2023-01-02T22:35:23.183Z,22.93
2023-01-02T22:37:54.647Z,22.43
2023-01-02T22:40:24.636Z,18.47
2023-01-02T22:43:02.841Z,23.07
2023-01-02T22:45:38.216Z,21.40
2023-01-02T22:48:15.652Z,17.37
2023-01-02T22:50:47.087Z,18.70
2023-01-02T22:53:21.719Z,20.43
2023-01-02T22:55:51.741Z,18.03
2023-01-02T22:58:22.218Z,15.03
2023-01-02T23:00:58.023Z,15.33
2023-01-02T23:03:30.697Z,13.40
2023-01-02T23:06:01.176Z,16.00
2023-01-02T23:08:32.807Z,12.57
2023-01-02T23:11:03.551Z,14.20
2023-01-02T23:13:34.541Z,16.07
2023-01-02T23:16:22.510Z,15.87
2023-01-02T23:19:09.446Z,14.33
2023-01-02T23:21:40.438Z,13.00
2023-01-02T23:24:13.817Z,11.60
2023-01-02T23:26:45.648Z,12.50
2023-01-02T23:29:16.558Z,11.90
2023-01-02T23:31:47.914Z,12.20
2023-01-02T23:34:19.011Z,14.07
2023-01-02T23:36:49.150Z,14.10
2023-01-02T23:39:23.090Z,11.37
2023-01-02T23:41:54.011Z,12.63
2023-01-02T23:44:24.682Z,10.70
2023-01-02T23:46:55.435Z,9.40
2023-01-02T23:49:25.614Z,11.10
2023-01-02T23:51:56.917Z,11.17
2023-01-02T23:54:28.313Z,9.77
2023-01-02T23:56:59.118Z,10.47
2023-01-02T23:59:29.113Z,9.73
